sensor_id;sensor_type;location;lat;lon;timestamp;temperature;humidity
6865;DHT22;3471;49.678;8.388;2023-01-13T00:01:13;11.20;99.90
6865;DHT22;3471;49.678;8.388;2023-01-13T00:03:40;11.30;99.90
6865;DHT22;3471;49.678;8.388;2023-01-13T00:06:06;11.30;99.90
6865;DHT22;3471;49.678;8.388;2023-01-13T00:08:32;11.40;99.90
6865;DHT22;3471;49.678;8.388;2023-01-13T00:10:58;11.40;99.90
6865;DHT22;3471;49.678;8.388;2023-01-13T00:13:24;11.40;99.90
6865;DHT22;3471;49.678;8.388;2023-01-13T00:15:57;11.40;99.90
6865;DHT22;3471;49.678;8.388;2023-01-13T00:18:23;11.40;99.90
6865;DHT22;3471;49.678;8.388;2023-01-13T00:21:00;11.40;99.90
6865;DHT22;3471;49.678;8.388;2023-01-13T00:23:27;11.40;99.90
6865;DHT22;3471;49.678;8.388;2023-01-13T00:25:57;11.40;99.90
6865;DHT22;3471;49.678;8.388;2023-01-13T00:28:23;11.40;99.90
6865;DHT22;3471;49.678;8.388;2023-01-13T00:30:49;11.30;99.90
6865;DHT22;3471;49.678;8.388;2023-01-13T00:33:14;11.30;99.90
6865;DHT22;3471;49.678;8.388;2023-01-13T00:35:40;11.30;99.90
6865;DHT22;3471;49.678;8.388;2023-01-13T00:38:05;11.40;99.90
6865;DHT22;3471;49.678;8.388;2023-01-13T00:40:31;11.40;99.90
6865;DHT22;3471;49.678;8.388;2023-01-13T00:42:57;11.40;99.90
6865;DHT22;3471;49.678;8.388;2023-01-13T00:45:41;11.50;99.90
6865;DHT22;3471;49.678;8.388;2023-01-13T00:48:07;11.40;99.90
6865;DHT22;3471;49.678;8.388;2023-01-13T00:50:33;11.50;99.90
6865;DHT22;3471;49.678;8.388;2023-01-13T00:52:59;11.50;99.90
6865;DHT22;3471;49.678;8.388;2023-01-13T00:55:25;11.40;99.90
6865;DHT22;3471;49.678;8.388;2023-01-13T00:57:51;11.50;99.90
6865;DHT22;3471;49.678;8.388;2023-01-13T01:00:17;11.50;99.90
6865;DHT22;3471;49.678;8.388;2023-01-13T01:02:42;11.50;99.90
6865;DHT22;3471;49.678;8.388;2023-01-13T01:05:08;11.50;99.90
6865;DHT22;3471;49.678;8.388;2023-01-13T01:07:34;11.40;99.90
6865;DHT22;3471;49.678;8.388;2023-01-13T01:10:00;11.40;99.90
6865;DHT22;3471;49.678;8.388;2023-01-13T01:12:26;11.40;99.90
6865;DHT22;3471;49.678;8.388;2023-01-13T01:14:52;11.40;99.90
6865;DHT22;3471;49.678;8.388;2023-01-13T01:17:17;11.50;99.90
6865;DHT22;3471;49.678;8.388;2023-01-13T01:19:43;11.50;99.90
6865;DHT22;3471;49.678;8.388;2023-01-13T01:22:08;11.50;99.90
6865;DHT22;3471;49.678;8.388;2023-01-13T01:24:34;11.50;99.90
6865;DHT22;3471;49.678;8.388;2023-01-13T01:26:59;11.50;99.90
6865;DHT22;3471;49.678;8.388;2023-01-13T01:29:25;11.50;99.90
6865;DHT22;3471;49.678;8.388;2023-01-13T01:31:51;11.50;99.90
6865;DHT22;3471;49.678;8.388;2023-01-13T01:34:16;11.50;99.90
6865;DHT22;3471;49.678;8.388;2023-01-13T01:36:42;11.50;99.90
6865;DHT22;3471;49.678;8.388;2023-01-13T01:39:09;11.50;99.90
6865;DHT22;3471;49.678;8.388;2023-01-13T01:41:35;11.50;99.90
6865;DHT22;3471;49.678;8.388;2023-01-13T01:44:48;11.50;99.90
6865;DHT22;3471;49.678;8.388;2023-01-13T01:46:53;11.50;99.90
6865;DHT22;3471;49.678;8.388;2023-01-13T01:55:04;11.50;99.90
6865;DHT22;3471;49.678;8.388;2023-01-13T01:57:10;11.50;99.90
6865;DHT22;3471;49.678;8.388;2023-01-13T01:59:38;11.50;99.90
6865;DHT22;3471;49.678;8.388;2023-01-13T02:02:04;11.50;99.90
6865;DHT22;3471;49.678;8.388;2023-01-13T02:04:33;11.40;99.90
6865;DHT22;3471;49.678;8.388;2023-01-13T02:07:01;11.40;99.90
6865;DHT22;3471;49.678;8.388;2023-01-13T02:09:28;11.40;99.90
6865;DHT22;3471;49.678;8.388;2023-01-13T02:11:54;11.40;99.90
6865;DHT22;3471;49.678;8.388;2023-01-13T02:14:40;11.40;99.90
6865;DHT22;3471;49.678;8.388;2023-01-13T02:28:41;11.30;99.90
6865;DHT22;3471;49.678;8.388;2023-01-13T02:31:32;11.30;99.90
6865;DHT22;3471;49.678;8.388;2023-01-13T02:34:14;11.30;99.90
6865;DHT22;3471;49.678;8.388;2023-01-13T02:39:23;11.30;99.90
6865;DHT22;3471;49.678;8.388;2023-01-13T02:42:07;11.40;99.90
6865;DHT22;3471;49.678;8.388;2023-01-13T02:45:09;11.40;99.90
6865;DHT22;3471;49.678;8.388;2023-01-13T02:47:37;11.40;99.90
6865;DHT22;3471;49.678;8.388;2023-01-13T02:50:26;11.40;99.90
6865;DHT22;3471;49.678;8.388;2023-01-13T02:53:07;11.40;99.90
6865;DHT22;3471;49.678;8.388;2023-01-13T02:55:42;11.40;99.90
6865;DHT22;3471;49.678;8.388;2023-01-13T02:58:11;11.40;99.90
6865;DHT22;3471;49.678;8.388;2023-01-13T03:00:38;11.40;99.90
6865;DHT22;3471;49.678;8.388;2023-01-13T03:03:04;11.30;99.90
6865;DHT22;3471;49.678;8.388;2023-01-13T03:05:31;11.40;99.90
6865;DHT22;3471;49.678;8.388;2023-01-13T03:11:07;11.40;99.90
6865;DHT22;3471;49.678;8.388;2023-01-13T03:14:06;11.40;99.90
6865;DHT22;3471;49.678;8.388;2023-01-13T03:19:45;11.40;99.90
6865;DHT22;3471;49.678;8.388;2023-01-13T03:22:30;11.40;99.90
6865;DHT22;3471;49.678;8.388;2023-01-13T03:27:47;11.40;99.90
6865;DHT22;3471;49.678;8.388;2023-01-13T03:30:28;11.50;99.90
6865;DHT22;3471;49.678;8.388;2023-01-13T03:33:05;11.40;99.90
6865;DHT22;3471;49.678;8.388;2023-01-13T03:35:44;11.40;99.90
6865;DHT22;3471;49.678;8.388;2023-01-13T03:38:13;11.40;99.90
6865;DHT22;3471;49.678;8.388;2023-01-13T03:40:48;11.50;99.90
6865;DHT22;3471;49.678;8.388;2023-01-13T03:43:18;11.50;99.90
6865;DHT22;3471;49.678;8.388;2023-01-13T03:46:13;11.50;99.90
6865;DHT22;3471;49.678;8.388;2023-01-13T03:48:43;11.50;99.90
6865;DHT22;3471;49.678;8.388;2023-01-13T03:51:14;11.50;99.90
6865;DHT22;3471;49.678;8.388;2023-01-13T03:53:52;11.50;99.90
6865;DHT22;3471;49.678;8.388;2023-01-13T03:56:21;11.60;99.90
6865;DHT22;3471;49.678;8.388;2023-01-13T03:58:49;11.60;99.90
6865;DHT22;3471;49.678;8.388;2023-01-13T04:01:31;11.60;99.90
6865;DHT22;3471;49.678;8.388;2023-01-13T04:04:02;11.60;99.90
6865;DHT22;3471;49.678;8.388;2023-01-13T04:11:48;11.50;99.90
6865;DHT22;3471;49.678;8.388;2023-01-13T04:14:18;11.60;99.90
6865;DHT22;3471;49.678;8.388;2023-01-13T04:16:46;11.50;99.90
6865;DHT22;3471;49.678;8.388;2023-01-13T04:19:12;11.60;99.90
6865;DHT22;3471;49.678;8.388;2023-01-13T04:21:38;11.50;99.90
6865;DHT22;3471;49.678;8.388;2023-01-13T04:24:03;11.60;99.90
6865;DHT22;3471;49.678;8.388;2023-01-13T04:26:29;11.50;99.90
6865;DHT22;3471;49.678;8.388;2023-01-13T04:28:55;11.50;99.90
6865;DHT22;3471;49.678;8.388;2023-01-13T04:31:20;11.50;99.90
6865;DHT22;3471;49.678;8.388;2023-01-13T04:33:46;11.50;99.90
6865;DHT22;3471;49.678;8.388;2023-01-13T04:36:12;11.50;99.90
6865;DHT22;3471;49.678;8.388;2023-01-13T04:38:37;11.50;99.90
6865;DHT22;3471;49.678;8.388;2023-01-13T04:41:03;11.50;99.90
6865;DHT22;3471;49.678;8.388;2023-01-13T04:43:28;11.50;99.90
6865;DHT22;3471;49.678;8.388;2023-01-13T04:45:54;11.60;99.90
6865;DHT22;3471;49.678;8.388;2023-01-13T04:48:20;11.60;99.90
6865;DHT22;3471;49.678;8.388;2023-01-13T04:50:45;11.60;99.90
6865;DHT22;3471;49.678;8.388;2023-01-13T04:53:11;11.60;99.90
6865;DHT22;3471;49.678;8.388;2023-01-13T04:55:37;11.60;99.90
6865;DHT22;3471;49.678;8.388;2023-01-13T04:58:07;11.60;99.90
6865;DHT22;3471;49.678;8.388;2023-01-13T05:00:34;11.60;99.90
6865;DHT22;3471;49.678;8.388;2023-01-13T05:02:59;11.60;99.90
6865;DHT22;3471;49.678;8.388;2023-01-13T05:05:27;11.60;99.90
6865;DHT22;3471;49.678;8.388;2023-01-13T05:07:53;11.60;99.90
6865;DHT22;3471;49.678;8.388;2023-01-13T05:10:19;11.60;99.90
6865;DHT22;3471;49.678;8.388;2023-01-13T05:12:45;11.50;99.90
6865;DHT22;3471;49.678;8.388;2023-01-13T05:15:29;11.50;99.90
6865;DHT22;3471;49.678;8.388;2023-01-13T05:18:15;11.50;99.90
6865;DHT22;3471;49.678;8.388;2023-01-13T05:20:40;11.60;99.90
6865;DHT22;3471;49.678;8.388;2023-01-13T05:23:06;11.60;99.90
6865;DHT22;3471;49.678;8.388;2023-01-13T05:25:50;11.60;99.90
6865;DHT22;3471;49.678;8.388;2023-01-13T05:28:16;11.60;99.90
6865;DHT22;3471;49.678;8.388;2023-01-13T05:30:44;11.60;99.90
6865;DHT22;3471;49.678;8.388;2023-01-13T05:33:12;11.50;99.90
6865;DHT22;3471;49.678;8.388;2023-01-13T05:35:40;11.50;99.90
6865;DHT22;3471;49.678;8.388;2023-01-13T05:38:06;11.50;99.90
6865;DHT22;3471;49.678;8.388;2023-01-13T05:40:32;11.60;99.90
6865;DHT22;3471;49.678;8.388;2023-01-13T05:43:18;11.60;99.90
6865;DHT22;3471;49.678;8.388;2023-01-13T05:46:04;11.60;99.90
6865;DHT22;3471;49.678;8.388;2023-01-13T05:48:38;11.60;99.90
6865;DHT22;3471;49.678;8.388;2023-01-13T05:51:06;11.60;99.90
6865;DHT22;3471;49.678;8.388;2023-01-13T05:53:32;11.60;99.90
6865;DHT22;3471;49.678;8.388;2023-01-13T05:55:58;11.60;99.90
6865;DHT22;3471;49.678;8.388;2023-01-13T05:58:26;11.60;99.90
6865;DHT22;3471;49.678;8.388;2023-01-13T06:00:52;11.60;99.90
6865;DHT22;3471;49.678;8.388;2023-01-13T06:03:17;11.70;99.90
6865;DHT22;3471;49.678;8.388;2023-01-13T06:05:47;11.70;99.90
6865;DHT22;3471;49.678;8.388;2023-01-13T06:08:13;11.70;99.90
6865;DHT22;3471;49.678;8.388;2023-01-13T06:10:38;11.70;99.90
6865;DHT22;3471;49.678;8.388;2023-01-13T06:13:04;11.70;99.90
6865;DHT22;3471;49.678;8.388;2023-01-13T06:15:31;11.80;99.90
6865;DHT22;3471;49.678;8.388;2023-01-13T06:17:56;11.80;99.90
6865;DHT22;3471;49.678;8.388;2023-01-13T06:20:23;11.80;99.90
6865;DHT22;3471;49.678;8.388;2023-01-13T06:22:49;11.80;99.90
6865;DHT22;3471;49.678;8.388;2023-01-13T06:28:01;11.40;99.90
6865;DHT22;3471;49.678;8.388;2023-01-13T06:30:29;11.10;99.90
6865;DHT22;3471;49.678;8.388;2023-01-13T06:32:58;10.90;99.90
6865;DHT22;3471;49.678;8.388;2023-01-13T06:35:30;10.80;99.90
6865;DHT22;3471;49.678;8.388;2023-01-13T06:37:59;10.60;99.90
6865;DHT22;3471;49.678;8.388;2023-01-13T06:40:26;10.50;99.90
6865;DHT22;3471;49.678;8.388;2023-01-13T06:42:53;10.40;99.90
6865;DHT22;3471;49.678;8.388;2023-01-13T06:45:39;10.30;99.90
6865;DHT22;3471;49.678;8.388;2023-01-13T06:48:05;10.30;99.90
6865;DHT22;3471;49.678;8.388;2023-01-13T06:50:31;10.30;99.90
6865;DHT22;3471;49.678;8.388;2023-01-13T06:52:56;10.30;99.90
6865;DHT22;3471;49.678;8.388;2023-01-13T06:55:22;10.40;99.90
6865;DHT22;3471;49.678;8.388;2023-01-13T06:57:49;10.40;99.90
6865;DHT22;3471;49.678;8.388;2023-01-13T07:00:15;10.40;99.90
6865;DHT22;3471;49.678;8.388;2023-01-13T07:02:40;10.40;99.90
6865;DHT22;3471;49.678;8.388;2023-01-13T07:05:06;10.40;99.90
6865;DHT22;3471;49.678;8.388;2023-01-13T07:07:32;10.50;99.90
6865;DHT22;3471;49.678;8.388;2023-01-13T07:09:58;10.50;99.90
6865;DHT22;3471;49.678;8.388;2023-01-13T07:12:24;10.40;99.90
6865;DHT22;3471;49.678;8.388;2023-01-13T07:14:49;10.40;99.90
6865;DHT22;3471;49.678;8.388;2023-01-13T07:17:34;10.40;99.90
6865;DHT22;3471;49.678;8.388;2023-01-13T07:19:59;10.40;99.90
6865;DHT22;3471;49.678;8.388;2023-01-13T07:22:25;10.40;99.90
6865;DHT22;3471;49.678;8.388;2023-01-13T07:24:51;10.30;99.90
6865;DHT22;3471;49.678;8.388;2023-01-13T07:27:16;10.30;99.90
6865;DHT22;3471;49.678;8.388;2023-01-13T07:29:42;10.40;99.90
6865;DHT22;3471;49.678;8.388;2023-01-13T07:32:08;10.30;99.90
6865;DHT22;3471;49.678;8.388;2023-01-13T07:34:34;10.30;99.90
6865;DHT22;3471;49.678;8.388;2023-01-13T07:37:00;10.30;99.90
6865;DHT22;3471;49.678;8.388;2023-01-13T07:39:26;10.30;99.90
6865;DHT22;3471;49.678;8.388;2023-01-13T07:41:51;10.30;99.90
6865;DHT22;3471;49.678;8.388;2023-01-13T07:44:36;10.30;99.90
6865;DHT22;3471;49.678;8.388;2023-01-13T07:47:02;10.30;99.90
6865;DHT22;3471;49.678;8.388;2023-01-13T07:49:27;10.30;99.90
6865;DHT22;3471;49.678;8.388;2023-01-13T07:51:53;10.20;99.90
6865;DHT22;3471;49.678;8.388;2023-01-13T07:54:18;10.20;99.90
6865;DHT22;3471;49.678;8.388;2023-01-13T07:56:44;10.20;99.90
6865;DHT22;3471;49.678;8.388;2023-01-13T07:59:10;10.10;99.90
6865;DHT22;3471;49.678;8.388;2023-01-13T08:01:35;10.10;99.90
6865;DHT22;3471;49.678;8.388;2023-01-13T08:04:01;10.10;99.90
6865;DHT22;3471;49.678;8.388;2023-01-13T08:06:27;10.10;99.90
6865;DHT22;3471;49.678;8.388;2023-01-13T08:08:52;10.00;99.90
6865;DHT22;3471;49.678;8.388;2023-01-13T08:11:18;10.10;99.90
6865;DHT22;3471;49.678;8.388;2023-01-13T08:13:44;10.10;99.90
6865;DHT22;3471;49.678;8.388;2023-01-13T08:16:12;10.10;99.90
6865;DHT22;3471;49.678;8.388;2023-01-13T08:18:39;10.00;99.90
6865;DHT22;3471;49.678;8.388;2023-01-13T08:21:07;10.00;99.90
6865;DHT22;3471;49.678;8.388;2023-01-13T08:23:33;10.00;99.90
6865;DHT22;3471;49.678;8.388;2023-01-13T08:26:01;9.90;99.90
6865;DHT22;3471;49.678;8.388;2023-01-13T08:28:27;10.00;99.90
6865;DHT22;3471;49.678;8.388;2023-01-13T08:30:53;10.00;99.90
6865;DHT22;3471;49.678;8.388;2023-01-13T08:33:19;10.00;99.90
6865;DHT22;3471;49.678;8.388;2023-01-13T08:35:45;10.00;99.90
6865;DHT22;3471;49.678;8.388;2023-01-13T08:38:11;10.10;99.90
6865;DHT22;3471;49.678;8.388;2023-01-13T08:40:38;10.00;99.90
6865;DHT22;3471;49.678;8.388;2023-01-13T08:43:04;10.10;99.90
6865;DHT22;3471;49.678;8.388;2023-01-13T08:45:30;10.10;99.90
6865;DHT22;3471;49.678;8.388;2023-01-13T08:47:55;10.10;99.90
6865;DHT22;3471;49.678;8.388;2023-01-13T08:50:21;10.10;99.90
6865;DHT22;3471;49.678;8.388;2023-01-13T08:52:47;10.10;99.90
6865;DHT22;3471;49.678;8.388;2023-01-13T08:55:12;10.10;99.90
6865;DHT22;3471;49.678;8.388;2023-01-13T08:57:38;10.10;99.90
6865;DHT22;3471;49.678;8.388;2023-01-13T09:00:05;10.20;99.90
6865;DHT22;3471;49.678;8.388;2023-01-13T09:02:31;10.30;99.90
6865;DHT22;3471;49.678;8.388;2023-01-13T09:04:58;10.30;99.90
6865;DHT22;3471;49.678;8.388;2023-01-13T09:07:24;10.40;99.90
6865;DHT22;3471;49.678;8.388;2023-01-13T09:09:50;10.40;99.90
6865;DHT22;3471;49.678;8.388;2023-01-13T09:12:16;10.50;99.90
6865;DHT22;3471;49.678;8.388;2023-01-13T09:15:01;10.60;99.90
6865;DHT22;3471;49.678;8.388;2023-01-13T09:17:26;10.60;99.90
6865;DHT22;3471;49.678;8.388;2023-01-13T09:19:52;10.70;99.90
6865;DHT22;3471;49.678;8.388;2023-01-13T09:22:18;10.80;99.90
6865;DHT22;3471;49.678;8.388;2023-01-13T09:24:44;11.00;99.90
6865;DHT22;3471;49.678;8.388;2023-01-13T09:27:11;11.20;99.90
6865;DHT22;3471;49.678;8.388;2023-01-13T09:29:37;11.40;99.90
6865;DHT22;3471;49.678;8.388;2023-01-13T09:32:03;11.50;99.90
6865;DHT22;3471;49.678;8.388;2023-01-13T09:34:29;11.70;99.90
6865;DHT22;3471;49.678;8.388;2023-01-13T09:37:13;11.70;99.90
6865;DHT22;3471;49.678;8.388;2023-01-13T09:39:38;11.80;99.90
6865;DHT22;3471;49.678;8.388;2023-01-13T09:48:36;12.00;99.90
6865;DHT22;3471;49.678;8.388;2023-01-13T09:51:29;12.10;99.90
6865;DHT22;3471;49.678;8.388;2023-01-13T09:54:04;12.10;99.90
6865;DHT22;3471;49.678;8.388;2023-01-13T09:56:32;12.10;99.90
6865;DHT22;3471;49.678;8.388;2023-01-13T09:58:58;12.20;99.90
6865;DHT22;3471;49.678;8.388;2023-01-13T10:01:40;12.20;99.90
6865;DHT22;3471;49.678;8.388;2023-01-13T10:04:11;12.30;99.90
6865;DHT22;3471;49.678;8.388;2023-01-13T10:06:39;12.10;99.90
6865;DHT22;3471;49.678;8.388;2023-01-13T10:09:16;12.00;99.90
6865;DHT22;3471;49.678;8.388;2023-01-13T10:11:44;11.80;99.90
6865;DHT22;3471;49.678;8.388;2023-01-13T10:14:38;11.70;99.90
6865;DHT22;3471;49.678;8.388;2023-01-13T10:20:02;11.50;99.90
6865;DHT22;3471;49.678;8.388;2023-01-13T10:27:45;11.20;99.90
6865;DHT22;3471;49.678;8.388;2023-01-13T10:30:27;11.20;99.90
6865;DHT22;3471;49.678;8.388;2023-01-13T10:38:28;11.30;99.90
6865;DHT22;3471;49.678;8.388;2023-01-13T10:40:57;11.50;99.90
6865;DHT22;3471;49.678;8.388;2023-01-13T10:43:23;11.60;99.90
6865;DHT22;3471;49.678;8.388;2023-01-13T10:46:00;11.70;99.90
6865;DHT22;3471;49.678;8.388;2023-01-13T10:51:19;11.80;99.90
6865;DHT22;3471;49.678;8.388;2023-01-13T10:56:16;12.40;99.90
6865;DHT22;3471;49.678;8.388;2023-01-13T10:58:42;13.00;99.90
6865;DHT22;3471;49.678;8.388;2023-01-13T11:01:22;13.70;99.90
6865;DHT22;3471;49.678;8.388;2023-01-13T11:03:53;14.80;99.90
6865;DHT22;3471;49.678;8.388;2023-01-13T11:06:27;15.80;99.90
6865;DHT22;3471;49.678;8.388;2023-01-13T11:08:55;16.70;99.90
6865;DHT22;3471;49.678;8.388;2023-01-13T11:11:44;17.10;99.90
6865;DHT22;3471;49.678;8.388;2023-01-13T11:14:22;17.50;99.90
6865;DHT22;3471;49.678;8.388;2023-01-13T11:17:04;17.90;99.90
6865;DHT22;3471;49.678;8.388;2023-01-13T11:19:36;18.10;99.90
6865;DHT22;3471;49.678;8.388;2023-01-13T11:22:16;18.50;99.90
6865;DHT22;3471;49.678;8.388;2023-01-13T11:24:54;18.80;99.90
6865;DHT22;3471;49.678;8.388;2023-01-13T11:32:39;17.10;99.90
6865;DHT22;3471;49.678;8.388;2023-01-13T11:35:18;16.00;99.90
6865;DHT22;3471;49.678;8.388;2023-01-13T11:37:50;15.20;99.90
6865;DHT22;3471;49.678;8.388;2023-01-13T11:40:37;14.70;99.90
6865;DHT22;3471;49.678;8.388;2023-01-13T11:43:42;13.90;99.90
6865;DHT22;3471;49.678;8.388;2023-01-13T11:46:11;13.20;99.90
6865;DHT22;3471;49.678;8.388;2023-01-13T11:48:39;12.70;99.90
6865;DHT22;3471;49.678;8.388;2023-01-13T11:51:33;12.40;99.90
6865;DHT22;3471;49.678;8.388;2023-01-13T12:05:35;11.70;99.90
6865;DHT22;3471;49.678;8.388;2023-01-13T12:08:22;12.00;99.90
6865;DHT22;3471;49.678;8.388;2023-01-13T12:11:02;12.20;99.90
6865;DHT22;3471;49.678;8.388;2023-01-13T12:13:35;11.90;99.90
6865;DHT22;3471;49.678;8.388;2023-01-13T12:16:29;11.80;99.90
6865;DHT22;3471;49.678;8.388;2023-01-13T12:19:02;11.60;99.90
6865;DHT22;3471;49.678;8.388;2023-01-13T12:24:50;12.00;99.90
6865;DHT22;3471;49.678;8.388;2023-01-13T12:30:03;13.70;99.90
6865;DHT22;3471;49.678;8.388;2023-01-13T12:32:38;15.10;99.90
6865;DHT22;3471;49.678;8.388;2023-01-13T12:35:15;15.70;99.90
6865;DHT22;3471;49.678;8.388;2023-01-13T12:51:21;18.80;99.90
6865;DHT22;3471;49.678;8.388;2023-01-13T12:53:47;19.90;99.90
6865;DHT22;3471;49.678;8.388;2023-01-13T12:56:42;20.50;99.90
6865;DHT22;3471;49.678;8.388;2023-01-13T13:01:45;21.30;99.90
6865;DHT22;3471;49.678;8.388;2023-01-13T13:04:13;21.60;99.90
6865;DHT22;3471;49.678;8.388;2023-01-13T13:06:43;21.60;98.40
6865;DHT22;3471;49.678;8.388;2023-01-13T13:09:31;21.90;98.70
6865;DHT22;3471;49.678;8.388;2023-01-13T13:15:21;21.30;95.70
6865;DHT22;3471;49.678;8.388;2023-01-13T13:26:36;18.10;97.60
6865;DHT22;3471;49.678;8.388;2023-01-13T13:40:32;13.70;99.90
6865;DHT22;3471;49.678;8.388;2023-01-13T13:43:22;13.60;99.90
6865;DHT22;3471;49.678;8.388;2023-01-13T13:46:29;13.20;99.90
6865;DHT22;3471;49.678;8.388;2023-01-13T13:49:17;12.60;99.90
6865;DHT22;3471;49.678;8.388;2023-01-13T13:54:21;12.30;99.90
6865;DHT22;3471;49.678;8.388;2023-01-13T13:56:48;13.00;99.90
6865;DHT22;3471;49.678;8.388;2023-01-13T13:59:18;14.00;99.90
6865;DHT22;3471;49.678;8.388;2023-01-13T14:01:50;14.90;99.90
6865;DHT22;3471;49.678;8.388;2023-01-13T14:04:20;15.90;99.90
6865;DHT22;3471;49.678;8.388;2023-01-13T14:09:50;16.60;99.90
6865;DHT22;3471;49.678;8.388;2023-01-13T14:12:25;15.80;99.90
6865;DHT22;3471;49.678;8.388;2023-01-13T14:14:52;14.90;99.90
6865;DHT22;3471;49.678;8.388;2023-01-13T14:17:28;14.00;99.90
6865;DHT22;3471;49.678;8.388;2023-01-13T14:20:15;12.90;99.90
6865;DHT22;3471;49.678;8.388;2023-01-13T14:22:48;12.30;99.90
6865;DHT22;3471;49.678;8.388;2023-01-13T14:25:28;11.90;99.90
6865;DHT22;3471;49.678;8.388;2023-01-13T14:27:54;11.60;99.90
6865;DHT22;3471;49.678;8.388;2023-01-13T14:30:22;11.50;99.90
6865;DHT22;3471;49.678;8.388;2023-01-13T14:32:49;11.20;99.90
6865;DHT22;3471;49.678;8.388;2023-01-13T14:35:16;11.10;99.90
6865;DHT22;3471;49.678;8.388;2023-01-13T14:37:43;11.30;99.90
6865;DHT22;3471;49.678;8.388;2023-01-13T14:42:59;12.10;99.90
6865;DHT22;3471;49.678;8.388;2023-01-13T14:45:25;12.40;99.90
6865;DHT22;3471;49.678;8.388;2023-01-13T14:47:52;12.70;99.90
6865;DHT22;3471;49.678;8.388;2023-01-13T14:50:20;12.70;99.90
6865;DHT22;3471;49.678;8.388;2023-01-13T14:52:53;12.70;99.90
6865;DHT22;3471;49.678;8.388;2023-01-13T14:58:24;12.10;99.90
6865;DHT22;3471;49.678;8.388;2023-01-13T15:04:25;11.80;99.90
6865;DHT22;3471;49.678;8.388;2023-01-13T15:06:54;11.70;99.90
6865;DHT22;3471;49.678;8.388;2023-01-13T15:09:39;11.50;99.90
6865;DHT22;3471;49.678;8.388;2023-01-13T15:12:21;11.40;99.90
6865;DHT22;3471;49.678;8.388;2023-01-13T15:14:49;11.30;99.90
6865;DHT22;3471;49.678;8.388;2023-01-13T15:17:16;11.30;99.90
6865;DHT22;3471;49.678;8.388;2023-01-13T15:19:42;11.20;99.90
6865;DHT22;3471;49.678;8.388;2023-01-13T15:22:08;11.30;99.90
6865;DHT22;3471;49.678;8.388;2023-01-13T15:24:33;11.30;99.90
6865;DHT22;3471;49.678;8.388;2023-01-13T15:26:59;11.20;99.90
6865;DHT22;3471;49.678;8.388;2023-01-13T15:29:24;11.20;99.90
6865;DHT22;3471;49.678;8.388;2023-01-13T15:31:50;11.00;99.90
6865;DHT22;3471;49.678;8.388;2023-01-13T15:34:15;10.80;99.90
6865;DHT22;3471;49.678;8.388;2023-01-13T15:36:41;10.60;99.90
6865;DHT22;3471;49.678;8.388;2023-01-13T15:39:10;10.50;99.90
6865;DHT22;3471;49.678;8.388;2023-01-13T15:41:37;10.40;99.90
6865;DHT22;3471;49.678;8.388;2023-01-13T15:44:21;10.30;99.90
6865;DHT22;3471;49.678;8.388;2023-01-13T15:47:07;10.30;99.90
6865;DHT22;3471;49.678;8.388;2023-01-13T15:49:39;10.20;99.90
6865;DHT22;3471;49.678;8.388;2023-01-13T15:52:26;10.20;99.90
6865;DHT22;3471;49.678;8.388;2023-01-13T15:54:52;10.20;99.90
6865;DHT22;3471;49.678;8.388;2023-01-13T15:57:25;10.20;99.90
6865;DHT22;3471;49.678;8.388;2023-01-13T15:59:53;10.20;99.90
6865;DHT22;3471;49.678;8.388;2023-01-13T16:02:20;10.20;99.90
6865;DHT22;3471;49.678;8.388;2023-01-13T16:04:47;10.20;99.90
6865;DHT22;3471;49.678;8.388;2023-01-13T16:07:17;10.20;99.90
6865;DHT22;3471;49.678;8.388;2023-01-13T16:09:43;10.20;99.90
6865;DHT22;3471;49.678;8.388;2023-01-13T16:12:10;10.30;99.90
6865;DHT22;3471;49.678;8.388;2023-01-13T16:14:36;10.30;99.90
6865;DHT22;3471;49.678;8.388;2023-01-13T16:17:05;10.30;99.90
6865;DHT22;3471;49.678;8.388;2023-01-13T16:19:36;10.40;99.90
6865;DHT22;3471;49.678;8.388;2023-01-13T16:22:02;10.50;99.90
6865;DHT22;3471;49.678;8.388;2023-01-13T16:24:28;10.50;99.90
6865;DHT22;3471;49.678;8.388;2023-01-13T16:26:53;10.60;99.90
6865;DHT22;3471;49.678;8.388;2023-01-13T16:29:19;10.60;99.90
6865;DHT22;3471;49.678;8.388;2023-01-13T16:31:44;10.60;99.90
6865;DHT22;3471;49.678;8.388;2023-01-13T16:34:10;10.60;99.90
6865;DHT22;3471;49.678;8.388;2023-01-13T16:36:35;10.60;99.90
6865;DHT22;3471;49.678;8.388;2023-01-13T16:39:02;10.50;99.90
6865;DHT22;3471;49.678;8.388;2023-01-13T16:41:28;10.50;99.90
6865;DHT22;3471;49.678;8.388;2023-01-13T16:43:53;10.40;99.90
6865;DHT22;3471;49.678;8.388;2023-01-13T16:46:27;10.30;99.90
6865;DHT22;3471;49.678;8.388;2023-01-13T16:48:55;10.30;99.90
6865;DHT22;3471;49.678;8.388;2023-01-13T16:51:22;10.20;99.90
6865;DHT22;3471;49.678;8.388;2023-01-13T16:53:49;10.20;99.90
6865;DHT22;3471;49.678;8.388;2023-01-13T16:56:22;10.20;99.90
6865;DHT22;3471;49.678;8.388;2023-01-13T16:58:49;10.20;99.90
6865;DHT22;3471;49.678;8.388;2023-01-13T17:01:27;10.10;99.90
6865;DHT22;3471;49.678;8.388;2023-01-13T17:03:53;10.10;99.90
6865;DHT22;3471;49.678;8.388;2023-01-13T17:06:37;10.10;99.90
6865;DHT22;3471;49.678;8.388;2023-01-13T17:09:06;10.00;99.90
6865;DHT22;3471;49.678;8.388;2023-01-13T17:11:31;10.00;99.90
6865;DHT22;3471;49.678;8.388;2023-01-13T17:13:57;9.90;99.90
6865;DHT22;3471;49.678;8.388;2023-01-13T17:16:23;9.80;99.90
6865;DHT22;3471;49.678;8.388;2023-01-13T17:18:51;9.80;99.90
6865;DHT22;3471;49.678;8.388;2023-01-13T17:21:17;9.80;99.90
6865;DHT22;3471;49.678;8.388;2023-01-13T17:23:43;9.80;99.90
6865;DHT22;3471;49.678;8.388;2023-01-13T17:26:30;9.80;99.90
6865;DHT22;3471;49.678;8.388;2023-01-13T17:28:58;9.80;99.90
6865;DHT22;3471;49.678;8.388;2023-01-13T17:31:24;9.80;99.90
6865;DHT22;3471;49.678;8.388;2023-01-13T17:33:49;9.70;99.90
6865;DHT22;3471;49.678;8.388;2023-01-13T17:36:15;9.70;99.90
6865;DHT22;3471;49.678;8.388;2023-01-13T17:38:41;9.70;99.90
6865;DHT22;3471;49.678;8.388;2023-01-13T17:41:06;9.80;99.90
6865;DHT22;3471;49.678;8.388;2023-01-13T17:43:32;9.80;99.90
6865;DHT22;3471;49.678;8.388;2023-01-13T17:45:59;9.80;99.90
6865;DHT22;3471;49.678;8.388;2023-01-13T17:48:25;9.80;99.90
6865;DHT22;3471;49.678;8.388;2023-01-13T17:50:50;9.80;99.90
6865;DHT22;3471;49.678;8.388;2023-01-13T17:53:17;9.80;99.90
6865;DHT22;3471;49.678;8.388;2023-01-13T17:55:52;9.80;99.90
6865;DHT22;3471;49.678;8.388;2023-01-13T17:58:19;9.70;99.90
6865;DHT22;3471;49.678;8.388;2023-01-13T18:00:46;9.70;99.90
6865;DHT22;3471;49.678;8.388;2023-01-13T18:03:12;9.70;99.90
6865;DHT22;3471;49.678;8.388;2023-01-13T18:05:38;9.70;99.90
6865;DHT22;3471;49.678;8.388;2023-01-13T18:08:04;9.80;99.90
6865;DHT22;3471;49.678;8.388;2023-01-13T18:10:29;9.80;99.90
6865;DHT22;3471;49.678;8.388;2023-01-13T18:12:55;9.80;99.90
6865;DHT22;3471;49.678;8.388;2023-01-13T18:15:21;9.70;99.90
6865;DHT22;3471;49.678;8.388;2023-01-13T18:17:47;9.70;99.90
6865;DHT22;3471;49.678;8.388;2023-01-13T18:20:14;9.60;99.90
6865;DHT22;3471;49.678;8.388;2023-01-13T18:22:58;9.60;99.90
6865;DHT22;3471;49.678;8.388;2023-01-13T18:25:44;9.50;99.90
6865;DHT22;3471;49.678;8.388;2023-01-13T18:28:28;9.50;99.90
6865;DHT22;3471;49.678;8.388;2023-01-13T18:30:54;9.50;99.90
6865;DHT22;3471;49.678;8.388;2023-01-13T18:33:20;9.50;99.90
6865;DHT22;3471;49.678;8.388;2023-01-13T18:35:45;9.50;99.90
6865;DHT22;3471;49.678;8.388;2023-01-13T18:38:11;9.50;99.90
6865;DHT22;3471;49.678;8.388;2023-01-13T18:40:50;9.50;99.90